Ekimchan, Russia
Current Conditions -  °F | °C
As of 4:00 AM on Friday 31 Oct 2014 (Local Time) from UHBB Reporting Station
Clear Clear  
Wind Chill:   Ceiling: Unl
Heat Index:   Visibility: 6mi
Dew Point:   Wind: 0mph
Humidity: 92%   Direction: NA
Pressure: 30.33"   Gusts: NA
Location:  53.07°N, 132.97°E
Report Text: UHBB 301900Z 00000MPS CAVOK M13/M14 Q1027 NOSIG RMK QFE753/100436090060
Loading
Personal Weather Stations






























Interactive Weather Map
Tropical Storm Tracking
New forecast layout! Learn more

10-Day Weather Forecast

Advertisements
Track Severe Weather on mobile